sensor_id;sensor_type;location;lat;lon;timestamp;pressure;altitude;pressure_sealevel;temperature;humidity
40596;BME280;26304;48.794;9.820;2022-08-19T00:01:43;95907.69;;;22.66;63.49
40596;BME280;26304;48.794;9.820;2022-08-19T00:07:26;95923.59;;;22.66;63.94
40596;BME280;26304;48.794;9.820;2022-08-19T00:13:09;95932.75;;;22.61;64.10
40596;BME280;26304;48.794;9.820;2022-08-19T00:18:53;95932.88;;;22.54;64.71
40596;BME280;26304;48.794;9.820;2022-08-19T00:24:36;95924.53;;;22.56;65.49
40596;BME280;26304;48.794;9.820;2022-08-19T00:30:19;95923.06;;;22.55;65.32
40596;BME280;26304;48.794;9.820;2022-08-19T00:36:06;95915.56;;;22.49;65.43
40596;BME280;26304;48.794;9.820;2022-08-19T00:41:50;95899.75;;;22.46;66.31
40596;BME280;26304;48.794;9.820;2022-08-19T00:47:33;95906.53;;;22.47;66.70
40596;BME280;26304;48.794;9.820;2022-08-19T00:53:20;95904.28;;;22.45;66.73
40596;BME280;26304;48.794;9.820;2022-08-19T00:59:04;95915.69;;;22.42;66.48
40596;BME280;26304;48.794;9.820;2022-08-19T01:04:50;95921.06;;;22.39;66.42
40596;BME280;26304;48.794;9.820;2022-08-19T01:10:37;95923.50;;;22.29;66.33
40596;BME280;26304;48.794;9.820;2022-08-19T01:16:24;95928.72;;;22.33;65.78
40596;BME280;26304;48.794;9.820;2022-08-19T01:22:11;95916.41;;;22.23;66.02
40596;BME280;26304;48.794;9.820;2022-08-19T01:27:55;95922.03;;;22.25;65.88
40596;BME280;26304;48.794;9.820;2022-08-19T01:33:38;95919.16;;;22.16;66.48
40596;BME280;26304;48.794;9.820;2022-08-19T01:39:24;95913.75;;;22.23;66.38
40596;BME280;26304;48.794;9.820;2022-08-19T01:45:09;95917.66;;;22.14;66.88
40596;BME280;26304;48.794;9.820;2022-08-19T01:50:51;95904.38;;;22.18;66.29
40596;BME280;26304;48.794;9.820;2022-08-19T01:56:34;95905.53;;;22.17;66.46
40596;BME280;26304;48.794;9.820;2022-08-19T02:02:18;95914.66;;;22.12;66.91
40596;BME280;26304;48.794;9.820;2022-08-19T02:08:01;95923.66;;;22.19;66.81
40596;BME280;26304;48.794;9.820;2022-08-19T02:13:43;95931.50;;;22.02;67.82
40596;BME280;26304;48.794;9.820;2022-08-19T02:19:27;95930.00;;;22.01;68.08
40596;BME280;26304;48.794;9.820;2022-08-19T02:25:11;95942.94;;;21.95;68.06
40596;BME280;26304;48.794;9.820;2022-08-19T02:30:54;95944.19;;;21.64;69.10
40596;BME280;26304;48.794;9.820;2022-08-19T02:36:38;95924.13;;;21.90;67.97
40596;BME280;26304;48.794;9.820;2022-08-19T02:42:20;95919.94;;;21.92;68.00
40596;BME280;26304;48.794;9.820;2022-08-19T02:48:04;95924.50;;;21.65;69.10
40596;BME280;26304;48.794;9.820;2022-08-19T02:53:48;95926.91;;;21.83;68.20
40596;BME280;26304;48.794;9.820;2022-08-19T02:59:31;95925.84;;;21.76;68.54
40596;BME280;26304;48.794;9.820;2022-08-19T03:05:14;95927.06;;;21.72;68.25
40596;BME280;26304;48.794;9.820;2022-08-19T03:10:57;95931.56;;;21.71;68.58
40596;BME280;26304;48.794;9.820;2022-08-19T03:16:43;95927.50;;;21.67;68.90
40596;BME280;26304;48.794;9.820;2022-08-19T03:22:25;95917.66;;;21.67;68.99
40596;BME280;26304;48.794;9.820;2022-08-19T03:28:09;95924.22;;;21.59;69.55
40596;BME280;26304;48.794;9.820;2022-08-19T03:33:52;95915.81;;;21.64;69.73
40596;BME280;26304;48.794;9.820;2022-08-19T03:39:36;95918.94;;;21.59;70.28
40596;BME280;26304;48.794;9.820;2022-08-19T03:45:20;95911.78;;;21.56;71.22
40596;BME280;26304;48.794;9.820;2022-08-19T03:51:03;95911.44;;;21.54;71.64
40596;BME280;26304;48.794;9.820;2022-08-19T03:56:47;95927.34;;;21.50;71.44
40596;BME280;26304;48.794;9.820;2022-08-19T04:02:31;95936.81;;;21.48;71.03
40596;BME280;26304;48.794;9.820;2022-08-19T04:08:14;95941.75;;;21.46;71.19
40596;BME280;26304;48.794;9.820;2022-08-19T04:14:01;95949.59;;;21.22;71.88
40596;BME280;26304;48.794;9.820;2022-08-19T04:19:45;95937.28;;;21.12;72.25
40596;BME280;26304;48.794;9.820;2022-08-19T04:25:28;95921.38;;;21.15;71.83
40596;BME280;26304;48.794;9.820;2022-08-19T04:31:13;95918.31;;;21.20;71.37
40596;BME280;26304;48.794;9.820;2022-08-19T04:36:58;95924.00;;;21.19;71.64
40596;BME280;26304;48.794;9.820;2022-08-19T04:42:41;95917.84;;;20.98;72.68
40596;BME280;26304;48.794;9.820;2022-08-19T04:48:26;95918.91;;;21.04;72.57
40596;BME280;26304;48.794;9.820;2022-08-19T04:54:10;95925.22;;;21.38;70.97
40596;BME280;26304;48.794;9.820;2022-08-19T04:59:54;95941.22;;;21.00;73.11
40596;BME280;26304;48.794;9.820;2022-08-19T05:05:39;95951.41;;;20.98;73.58
40596;BME280;26304;48.794;9.820;2022-08-19T05:11:24;95967.56;;;21.07;72.75
40596;BME280;26304;48.794;9.820;2022-08-19T05:17:07;95974.56;;;21.21;72.23
40596;BME280;26304;48.794;9.820;2022-08-19T05:22:50;95984.47;;;21.13;73.06
40596;BME280;26304;48.794;9.820;2022-08-19T05:28:34;95996.78;;;21.23;72.12
40596;BME280;26304;48.794;9.820;2022-08-19T05:34:18;95995.31;;;21.22;71.98
40596;BME280;26304;48.794;9.820;2022-08-19T05:40:01;96001.69;;;21.25;71.78
40596;BME280;26304;48.794;9.820;2022-08-19T05:45:45;96012.00;;;21.47;71.29
40596;BME280;26304;48.794;9.820;2022-08-19T05:51:28;96019.47;;;21.55;70.94
40596;BME280;26304;48.794;9.820;2022-08-19T05:57:10;96022.31;;;21.68;70.26
40596;BME280;26304;48.794;9.820;2022-08-19T06:02:54;96021.19;;;21.69;70.01
40596;BME280;26304;48.794;9.820;2022-08-19T06:08:38;96024.22;;;21.68;69.85
40596;BME280;26304;48.794;9.820;2022-08-19T06:14:23;96025.94;;;21.82;69.71
40596;BME280;26304;48.794;9.820;2022-08-19T06:20:09;96020.91;;;21.91;69.26
40596;BME280;26304;48.794;9.820;2022-08-19T06:25:54;96020.13;;;21.90;69.53
40596;BME280;26304;48.794;9.820;2022-08-19T06:31:41;96026.63;;;21.86;69.78
40596;BME280;26304;48.794;9.820;2022-08-19T06:37:25;96017.06;;;21.95;69.24
40596;BME280;26304;48.794;9.820;2022-08-19T06:43:08;96012.50;;;21.96;69.40
40596;BME280;26304;48.794;9.820;2022-08-19T06:48:50;96022.28;;;21.99;69.47
40596;BME280;26304;48.794;9.820;2022-08-19T06:54:35;96020.72;;;22.02;69.02
40596;BME280;26304;48.794;9.820;2022-08-19T07:00:18;96027.06;;;22.08;68.96
40596;BME280;26304;48.794;9.820;2022-08-19T07:06:03;96030.50;;;22.05;69.20
40596;BME280;26304;48.794;9.820;2022-08-19T07:11:48;96028.63;;;22.05;69.28
40596;BME280;26304;48.794;9.820;2022-08-19T07:17:31;96028.91;;;22.11;68.75
40596;BME280;26304;48.794;9.820;2022-08-19T07:23:15;96030.88;;;22.07;68.89
40596;BME280;26304;48.794;9.820;2022-08-19T07:28:59;96028.16;;;22.10;68.81
40596;BME280;26304;48.794;9.820;2022-08-19T07:34:42;96032.66;;;22.13;68.37
40596;BME280;26304;48.794;9.820;2022-08-19T07:40:26;96033.47;;;22.10;68.75
40596;BME280;26304;48.794;9.820;2022-08-19T07:46:11;96034.34;;;22.00;69.22
40596;BME280;26304;48.794;9.820;2022-08-19T07:51:57;96038.75;;;22.10;69.27
40596;BME280;26304;48.794;9.820;2022-08-19T07:57:39;96056.19;;;22.08;69.32
40596;BME280;26304;48.794;9.820;2022-08-19T08:03:24;96060.09;;;22.00;69.89
40596;BME280;26304;48.794;9.820;2022-08-19T08:09:29;96064.56;;;22.03;69.82
40596;BME280;26304;48.794;9.820;2022-08-19T08:15:15;96062.59;;;22.10;69.64
40596;BME280;26304;48.794;9.820;2022-08-19T08:21:00;96060.78;;;22.04;70.01
40596;BME280;26304;48.794;9.820;2022-08-19T08:26:43;96059.00;;;22.21;69.58
40596;BME280;26304;48.794;9.820;2022-08-19T08:32:26;96072.72;;;22.16;69.79
40596;BME280;26304;48.794;9.820;2022-08-19T08:38:10;96069.72;;;22.13;69.82
40596;BME280;26304;48.794;9.820;2022-08-19T08:43:53;96073.41;;;22.20;69.40
40596;BME280;26304;48.794;9.820;2022-08-19T08:49:43;96067.75;;;22.18;69.55
40596;BME280;26304;48.794;9.820;2022-08-19T08:55:29;96063.38;;;22.07;69.96
40596;BME280;26304;48.794;9.820;2022-08-19T09:01:12;96075.03;;;22.13;69.41
40596;BME280;26304;48.794;9.820;2022-08-19T09:07:15;96079.47;;;22.20;69.17
40596;BME280;26304;48.794;9.820;2022-08-19T09:13:09;96082.84;;;22.21;69.55
40596;BME280;26304;48.794;9.820;2022-08-19T09:18:56;96079.84;;;22.19;70.62
40596;BME280;26304;48.794;9.820;2022-08-19T09:24:40;96088.53;;;22.19;69.80
40596;BME280;26304;48.794;9.820;2022-08-19T09:30:27;96080.97;;;22.21;69.71
40596;BME280;26304;48.794;9.820;2022-08-19T09:36:12;96079.50;;;22.17;69.53
40596;BME280;26304;48.794;9.820;2022-08-19T09:41:55;96080.91;;;22.25;69.33
40596;BME280;26304;48.794;9.820;2022-08-19T09:47:39;96080.31;;;22.13;69.89
40596;BME280;26304;48.794;9.820;2022-08-19T09:53:21;96087.75;;;22.22;69.05
40596;BME280;26304;48.794;9.820;2022-08-19T09:59:04;96073.03;;;22.21;69.16
40596;BME280;26304;48.794;9.820;2022-08-19T10:04:48;96073.41;;;22.20;69.34
40596;BME280;26304;48.794;9.820;2022-08-19T10:10:54;96066.63;;;22.19;68.79
40596;BME280;26304;48.794;9.820;2022-08-19T10:16:37;96081.66;;;22.25;68.87
40596;BME280;26304;48.794;9.820;2022-08-19T10:22:22;96086.66;;;22.20;69.12
40596;BME280;26304;48.794;9.820;2022-08-19T10:28:05;96088.53;;;22.19;68.71
40596;BME280;26304;48.794;9.820;2022-08-19T10:33:48;96077.50;;;22.24;69.01
40596;BME280;26304;48.794;9.820;2022-08-19T10:39:34;96083.94;;;22.23;68.93
40596;BME280;26304;48.794;9.820;2022-08-19T10:45:16;96084.00;;;22.20;68.94
40596;BME280;26304;48.794;9.820;2022-08-19T10:50:59;96085.16;;;22.19;68.96
40596;BME280;26304;48.794;9.820;2022-08-19T10:57:00;96093.88;;;22.16;69.55
40596;BME280;26304;48.794;9.820;2022-08-19T11:02:43;96088.72;;;22.08;69.97
40596;BME280;26304;48.794;9.820;2022-08-19T11:08:25;96088.25;;;22.13;69.94
40596;BME280;26304;48.794;9.820;2022-08-19T11:14:12;96090.91;;;22.13;69.60
40596;BME280;26304;48.794;9.820;2022-08-19T11:19:55;96102.63;;;22.12;70.24
40596;BME280;26304;48.794;9.820;2022-08-19T11:25:38;96097.25;;;22.20;69.87
40596;BME280;26304;48.794;9.820;2022-08-19T11:31:24;96105.19;;;22.20;70.43
40596;BME280;26304;48.794;9.820;2022-08-19T11:37:07;96111.28;;;22.17;71.15
40596;BME280;26304;48.794;9.820;2022-08-19T11:42:50;96106.88;;;22.06;72.22
40596;BME280;26304;48.794;9.820;2022-08-19T11:48:40;96107.47;;;21.90;73.41
40596;BME280;26304;48.794;9.820;2022-08-19T11:54:22;96105.63;;;21.87;74.78
40596;BME280;26304;48.794;9.820;2022-08-19T12:00:06;96110.16;;;21.87;75.31
40596;BME280;26304;48.794;9.820;2022-08-19T12:05:51;96109.28;;;21.97;75.34
40596;BME280;26304;48.794;9.820;2022-08-19T12:11:34;96113.25;;;21.82;76.57
40596;BME280;26304;48.794;9.820;2022-08-19T12:17:17;96105.06;;;21.72;77.43
40596;BME280;26304;48.794;9.820;2022-08-19T12:23:02;96112.28;;;21.68;77.91
40596;BME280;26304;48.794;9.820;2022-08-19T12:28:44;96115.19;;;21.77;77.53
40596;BME280;26304;48.794;9.820;2022-08-19T12:34:28;96114.78;;;21.83;77.40
40596;BME280;26304;48.794;9.820;2022-08-19T12:40:13;96116.78;;;22.02;76.53
40596;BME280;26304;48.794;9.820;2022-08-19T12:45:56;96128.75;;;22.10;75.98
40596;BME280;26304;48.794;9.820;2022-08-19T12:51:39;96136.22;;;21.88;77.45
40596;BME280;26304;48.794;9.820;2022-08-19T12:57:24;96125.84;;;22.01;76.28
40596;BME280;26304;48.794;9.820;2022-08-19T13:03:07;96126.56;;;22.05;75.55
40596;BME280;26304;48.794;9.820;2022-08-19T13:08:51;96125.69;;;21.85;76.24
40596;BME280;26304;48.794;9.820;2022-08-19T13:14:35;96130.50;;;21.93;75.36
40596;BME280;26304;48.794;9.820;2022-08-19T13:20:19;96133.47;;;21.99;75.35
40596;BME280;26304;48.794;9.820;2022-08-19T13:26:04;96138.44;;;21.93;75.77
40596;BME280;26304;48.794;9.820;2022-08-19T13:31:50;96137.25;;;21.98;75.47
40596;BME280;26304;48.794;9.820;2022-08-19T13:37:50;96137.94;;;22.02;76.76
40596;BME280;26304;48.794;9.820;2022-08-19T13:43:32;96148.53;;;22.02;76.73
40596;BME280;26304;48.794;9.820;2022-08-19T13:49:16;96137.81;;;22.13;76.52
40596;BME280;26304;48.794;9.820;2022-08-19T13:54:59;96133.25;;;22.13;76.75
40596;BME280;26304;48.794;9.820;2022-08-19T14:00:44;96141.22;;;22.13;76.74
40596;BME280;26304;48.794;9.820;2022-08-19T14:06:28;96132.47;;;22.17;76.28
40596;BME280;26304;48.794;9.820;2022-08-19T14:12:10;96126.47;;;22.12;76.73
40596;BME280;26304;48.794;9.820;2022-08-19T14:17:53;96130.34;;;22.04;77.00
40596;BME280;26304;48.794;9.820;2022-08-19T14:23:37;96131.25;;;21.94;78.05
40596;BME280;26304;48.794;9.820;2022-08-19T14:29:19;96131.28;;;21.90;78.39
40596;BME280;26304;48.794;9.820;2022-08-19T14:35:02;96128.78;;;21.80;79.71
40596;BME280;26304;48.794;9.820;2022-08-19T14:40:46;96129.47;;;21.84;79.27
40596;BME280;26304;48.794;9.820;2022-08-19T14:46:29;96127.50;;;21.91;78.71
40596;BME280;26304;48.794;9.820;2022-08-19T14:52:12;96134.72;;;22.18;77.81
40596;BME280;26304;48.794;9.820;2022-08-19T14:57:56;96133.25;;;22.13;77.67
40596;BME280;26304;48.794;9.820;2022-08-19T15:03:39;96130.69;;;22.06;78.47
40596;BME280;26304;48.794;9.820;2022-08-19T15:09:22;96138.50;;;22.17;78.07
40596;BME280;26304;48.794;9.820;2022-08-19T15:15:07;96150.47;;;22.29;77.16
40596;BME280;26304;48.794;9.820;2022-08-19T15:20:50;96142.22;;;22.23;77.45
40596;BME280;26304;48.794;9.820;2022-08-19T15:26:33;96152.66;;;22.03;78.65
40596;BME280;26304;48.794;9.820;2022-08-19T15:32:16;96153.84;;;22.02;78.84
40596;BME280;26304;48.794;9.820;2022-08-19T15:37:59;96159.06;;;22.06;78.62
40596;BME280;26304;48.794;9.820;2022-08-19T15:43:45;96159.47;;;22.04;78.45
40596;BME280;26304;48.794;9.820;2022-08-19T15:49:29;96145.56;;;21.97;78.82
40596;BME280;26304;48.794;9.820;2022-08-19T15:55:12;96153.00;;;21.78;79.54
40596;BME280;26304;48.794;9.820;2022-08-19T16:00:55;96170.91;;;21.98;78.40
40596;BME280;26304;48.794;9.820;2022-08-19T16:06:58;96176.66;;;21.92;78.90
40596;BME280;26304;48.794;9.820;2022-08-19T16:12:41;96173.41;;;21.77;80.27
40596;BME280;26304;48.794;9.820;2022-08-19T16:18:23;96165.06;;;21.79;80.26
40596;BME280;26304;48.794;9.820;2022-08-19T16:24:10;96173.56;;;21.63;81.57
40596;BME280;26304;48.794;9.820;2022-08-19T16:29:53;96174.56;;;21.76;80.33
40596;BME280;26304;48.794;9.820;2022-08-19T16:35:36;96167.19;;;21.57;81.76
40596;BME280;26304;48.794;9.820;2022-08-19T16:41:20;96171.31;;;21.62;82.36
40596;BME280;26304;48.794;9.820;2022-08-19T16:47:03;96160.97;;;21.74;82.20
40596;BME280;26304;48.794;9.820;2022-08-19T16:52:46;96160.78;;;21.89;80.81
40596;BME280;26304;48.794;9.820;2022-08-19T16:58:30;96166.97;;;21.79;81.03
40596;BME280;26304;48.794;9.820;2022-08-19T17:04:14;96176.84;;;21.74;81.07
40596;BME280;26304;48.794;9.820;2022-08-19T17:09:56;96182.84;;;21.79;80.65
40596;BME280;26304;48.794;9.820;2022-08-19T17:15:41;96175.25;;;21.81;80.49
40596;BME280;26304;48.794;9.820;2022-08-19T17:21:25;96188.44;;;21.84;80.52
40596;BME280;26304;48.794;9.820;2022-08-19T17:27:09;96188.09;;;21.82;80.52
40596;BME280;26304;48.794;9.820;2022-08-19T17:32:53;96198.59;;;21.89;79.83
40596;BME280;26304;48.794;9.820;2022-08-19T17:38:36;96179.25;;;21.96;79.80
40596;BME280;26304;48.794;9.820;2022-08-19T17:44:19;96180.31;;;22.02;79.32
40596;BME280;26304;48.794;9.820;2022-08-19T17:50:03;96181.75;;;22.07;78.80
40596;BME280;26304;48.794;9.820;2022-08-19T17:55:46;96189.72;;;22.03;79.29
40596;BME280;26304;48.794;9.820;2022-08-19T18:01:30;96188.25;;;22.02;79.46
40596;BME280;26304;48.794;9.820;2022-08-19T18:07:14;96191.25;;;22.04;79.21
40596;BME280;26304;48.794;9.820;2022-08-19T18:12:58;96199.50;;;22.10;78.80
40596;BME280;26304;48.794;9.820;2022-08-19T18:18:41;96200.31;;;22.03;79.55
40596;BME280;26304;48.794;9.820;2022-08-19T18:24:25;96205.97;;;22.05;79.35
40596;BME280;26304;48.794;9.820;2022-08-19T18:30:08;96203.72;;;22.04;79.46
40596;BME280;26304;48.794;9.820;2022-08-19T18:35:51;96211.13;;;22.16;78.82
40596;BME280;26304;48.794;9.820;2022-08-19T18:41:35;96211.84;;;22.20;78.54
40596;BME280;26304;48.794;9.820;2022-08-19T18:47:35;96214.41;;;22.27;77.69
40596;BME280;26304;48.794;9.820;2022-08-19T18:53:37;96223.09;;;22.28;77.66
40596;BME280;26304;48.794;9.820;2022-08-19T18:59:23;96230.69;;;22.26;77.65
40596;BME280;26304;48.794;9.820;2022-08-19T19:05:06;96235.69;;;22.20;77.99
40596;BME280;26304;48.794;9.820;2022-08-19T19:10:49;96235.63;;;22.24;77.44
40596;BME280;26304;48.794;9.820;2022-08-19T19:16:33;96235.28;;;22.22;77.83
40596;BME280;26304;48.794;9.820;2022-08-19T19:22:18;96234.72;;;22.03;78.33
40596;BME280;26304;48.794;9.820;2022-08-19T19:28:01;96238.53;;;22.02;78.13
40596;BME280;26304;48.794;9.820;2022-08-19T19:33:45;96251.88;;;22.29;77.03
40596;BME280;26304;48.794;9.820;2022-08-19T19:39:27;96251.91;;;22.22;76.94
40596;BME280;26304;48.794;9.820;2022-08-19T19:45:10;96251.97;;;22.19;76.55
40596;BME280;26304;48.794;9.820;2022-08-19T19:50:54;96257.63;;;21.86;77.96
40596;BME280;26304;48.794;9.820;2022-08-19T19:56:37;96258.94;;;22.05;77.40
40596;BME280;26304;48.794;9.820;2022-08-19T20:02:20;96260.50;;;21.99;77.67
40596;BME280;26304;48.794;9.820;2022-08-19T20:08:04;96267.81;;;21.88;78.06
40596;BME280;26304;48.794;9.820;2022-08-19T20:14:05;96273.44;;;21.90;77.73
40596;BME280;26304;48.794;9.820;2022-08-19T20:19:48;96279.66;;;21.72;78.38
40596;BME280;26304;48.794;9.820;2022-08-19T20:25:32;96283.16;;;21.66;79.04
40596;BME280;26304;48.794;9.820;2022-08-19T20:31:15;96285.84;;;21.58;79.81
40596;BME280;26304;48.794;9.820;2022-08-19T20:36:59;96283.09;;;21.69;78.86
40596;BME280;26304;48.794;9.820;2022-08-19T20:42:43;96286.19;;;21.64;79.40
40596;BME280;26304;48.794;9.820;2022-08-19T20:48:25;96287.44;;;21.52;80.04
40596;BME280;26304;48.794;9.820;2022-08-19T20:54:08;96276.44;;;21.54;79.83
40596;BME280;26304;48.794;9.820;2022-08-19T20:59:52;96272.63;;;21.58;79.40
40596;BME280;26304;48.794;9.820;2022-08-19T21:05:34;96268.53;;;21.47;79.63
40596;BME280;26304;48.794;9.820;2022-08-19T21:11:17;96285.19;;;21.51;79.23
40596;BME280;26304;48.794;9.820;2022-08-19T21:17:00;96280.69;;;21.40;79.42
40596;BME280;26304;48.794;9.820;2022-08-19T21:22:43;96264.91;;;21.30;80.18
40596;BME280;26304;48.794;9.820;2022-08-19T21:28:27;96278.22;;;21.15;80.88
40596;BME280;26304;48.794;9.820;2022-08-19T21:34:11;96271.84;;;21.13;81.49
40596;BME280;26304;48.794;9.820;2022-08-19T21:39:54;96271.16;;;20.98;82.40
40596;BME280;26304;48.794;9.820;2022-08-19T21:45:36;96281.00;;;20.97;82.33
40596;BME280;26304;48.794;9.820;2022-08-19T21:51:20;96282.53;;;20.95;82.62
40596;BME280;26304;48.794;9.820;2022-08-19T21:57:03;96276.13;;;20.92;82.51
40596;BME280;26304;48.794;9.820;2022-08-19T22:02:46;96271.22;;;20.94;82.32
40596;BME280;26304;48.794;9.820;2022-08-19T22:08:30;96270.50;;;20.86;82.71
40596;BME280;26304;48.794;9.820;2022-08-19T22:14:12;96273.94;;;20.80;83.10
40596;BME280;26304;48.794;9.820;2022-08-19T22:19:55;96273.19;;;20.76;83.17
40596;BME280;26304;48.794;9.820;2022-08-19T22:25:43;96277.38;;;20.73;83.67
40596;BME280;26304;48.794;9.820;2022-08-19T22:31:26;96284.16;;;20.78;83.38
40596;BME280;26304;48.794;9.820;2022-08-19T22:37:08;96284.94;;;20.67;83.70
40596;BME280;26304;48.794;9.820;2022-08-19T22:42:57;96283.44;;;20.70;83.47
40596;BME280;26304;48.794;9.820;2022-08-19T22:48:42;96275.50;;;20.70;83.64
40596;BME280;26304;48.794;9.820;2022-08-19T22:54:24;96277.41;;;20.62;83.91
40596;BME280;26304;48.794;9.820;2022-08-19T23:00:10;96280.44;;;20.64;83.64
40596;BME280;26304;48.794;9.820;2022-08-19T23:05:53;96284.19;;;20.63;83.55
40596;BME280;26304;48.794;9.820;2022-08-19T23:11:38;96281.56;;;20.60;83.41
40596;BME280;26304;48.794;9.820;2022-08-19T23:17:22;96274.75;;;20.62;83.60
40596;BME280;26304;48.794;9.820;2022-08-19T23:23:07;96272.16;;;20.51;83.94
40596;BME280;26304;48.794;9.820;2022-08-19T23:28:50;96278.22;;;20.48;83.94
40596;BME280;26304;48.794;9.820;2022-08-19T23:34:51;96285.41;;;20.48;83.50
40596;BME280;26304;48.794;9.820;2022-08-19T23:40:36;96279.38;;;20.40;83.68
40596;BME280;26304;48.794;9.820;2022-08-19T23:46:19;96283.19;;;20.36;84.02
40596;BME280;26304;48.794;9.820;2022-08-19T23:52:03;96287.34;;;20.33;83.82
40596;BME280;26304;48.794;9.820;2022-08-19T23:57:46;96282.84;;;20.26;83.96
